EGPO

Stornoway Airport

Stornoway, United Kingdom
METAR EGPO 231450Z 17008KT 9999 FEW020 14/09 Q1026
Observed Flight Rules
May-23 @ 14:50 UTC (13 minutes ago) Visual Flight Rules
Wind Visibility Clouds
170° at 8 knots 10,000+ meters
  • Few at 2,000' AGL
Temperatures Readings
Current 14°C / 57°F
Dewpoint 9°C / 48°F
Humidity 72%
Altimeter 30.3" Hg
Pressure 1026 hPa
Elevation 13
METAR EGPO 231450Z 17008KT 9999 FEW020 14/09 Q1026
Observed Flight Rules
May-23 @ 14:50 UTC
(13 minutes ago)
VFR
Wind Visibility
170° at 8 knots 10,000+ meters
Clouds
  • Few at 2,000' AGL
Temperature Dewpoint
14°C / 57°F 9°C / 48°F
Humidity Altimeter Pressure
72% 30.3" Hg 1026 hPa